KRIV/RIV METAR and TAF weather

Enter ICAO airport designator
Station Type Date Time Source
KRIV METAR 2020/08/12 16:58 UTC NOAA

KRIV 121658Z AUTO 01003KT 10SM CLR 31/02 A2994 RMK AO2 SLP125 T03100022


Station Type Date Time Source
KRIV Decoded METAR 2020/08/12 16:58 UTC NOAA

Riverside / March Air Force Base, CA, United States (KRIV) 33-54N 117-15W 468M
Aug 12, 2020 - 12:58 PM EDT / 2020.08.12 1658 UTC
Wind: from the N (010 degrees) at 3 MPH (3 KT):0
Visibility: 10 mile(s):0
Sky conditions: clear
Temperature: 87.8 F (31.0 C)
Dew Point: 36.0 F (2.2 C)
Relative Humidity: 15%
Pressure (altimeter): 29.94 in. Hg (1013 hPa)
ob: KRIV 121658Z AUTO 01003KT 10SM CLR 31/02 A2994 RMK AO2 SLP125 T03100022
cycle: 17

Station Type Date Time Source
KRIV TAF 2020/08/12 12:09 UTC NOAA

TAF KRIV 121212Z 1212/1318 VRB05KT 9999 SKC QNH2991INS
BECMG 1218/1219 31009KT 9999 SCT120 SCT200 510009 QNH2987INS
TEMPO 1221/1302 31012G20KT
BECMG 1304/1305 VRB05KT 9999 BKN150 QNH2990INS
BECMG 1317/1318 31006KT 9999 SCT150 BKN250 QNH2992INS TX38/1222Z TN13/1213Z

Example: see airport list